createdAt,value
2023-05-10T00:00:06.094Z,9.63
2023-05-10T00:03:16.210Z,9.57
2023-05-10T00:06:19.395Z,9.52
2023-05-10T00:09:22.262Z,9.49
2023-05-10T00:12:26.552Z,9.48
2023-05-10T00:15:29.439Z,9.39
2023-05-10T00:18:32.397Z,9.35
2023-05-10T00:21:36.613Z,9.29
2023-05-10T00:24:39.578Z,9.29
2023-05-10T00:27:42.657Z,9.26
2023-05-10T00:30:45.937Z,9.29
2023-05-10T00:33:49.224Z,9.25
2023-05-10T00:36:52.390Z,9.23
2023-05-10T00:39:57.207Z,9.22
2023-05-10T00:43:01.613Z,9.24
2023-05-10T00:46:05.770Z,9.23
2023-05-10T00:49:11.448Z,9.14
2023-05-10T00:52:14.532Z,9.05
2023-05-10T00:55:18.102Z,8.98
2023-05-10T00:58:22.717Z,8.91
2023-05-10T01:01:33.314Z,8.92
2023-05-10T01:04:38.845Z,8.83
2023-05-10T01:07:45.144Z,8.75
2023-05-10T01:17:28.580Z,8.78
2023-05-10T01:20:48.050Z,8.74
2023-05-10T01:24:10.658Z,8.75
2023-05-10T01:27:33.751Z,8.75
2023-05-10T01:31:07.655Z,8.63
2023-05-10T01:34:23.293Z,8.55
2023-05-10T01:38:01.578Z,8.49
2023-05-10T01:41:27.361Z,8.50
2023-05-10T01:44:38.868Z,8.56
2023-05-10T01:47:55.762Z,8.57
2023-05-10T01:51:00.220Z,8.65
2023-05-10T01:54:06.166Z,8.60
2023-05-10T01:57:11.693Z,8.57
2023-05-10T02:00:17.463Z,8.52
2023-05-10T02:03:24.733Z,8.53
2023-05-10T02:06:29.822Z,8.52
2023-05-10T02:09:34.942Z,8.43
2023-05-10T02:12:43.118Z,8.35
2023-05-10T02:15:50.103Z,8.28
2023-05-10T02:18:55.424Z,8.27
2023-05-10T02:21:59.748Z,8.31
2023-05-10T02:25:05.065Z,8.31
2023-05-10T02:28:10.078Z,8.34
2023-05-10T02:31:14.682Z,8.29
2023-05-10T02:34:19.709Z,8.25
2023-05-10T02:37:23.911Z,8.23
2023-05-10T02:40:29.035Z,8.19
2023-05-10T02:43:38.039Z,8.16
2023-05-10T02:46:41.730Z,8.12
2023-05-10T02:49:45.111Z,8.07
2023-05-10T02:52:52.588Z,8.00
2023-05-10T02:55:59.058Z,8.01
2023-05-10T02:59:04.995Z,8.03
2023-05-10T03:02:16.135Z,7.98
2023-05-10T03:05:20.952Z,7.93
2023-05-10T03:08:26.489Z,7.90
2023-05-10T03:11:53.094Z,7.91
2023-05-10T03:15:26.562Z,7.99
2023-05-10T03:18:57.780Z,7.96
2023-05-10T03:22:08.035Z,7.91
2023-05-10T03:25:18.051Z,7.93
2023-05-10T03:28:23.999Z,7.95
2023-05-10T03:31:28.263Z,7.94
2023-05-10T03:34:34.239Z,7.91
2023-05-10T03:37:41.201Z,7.90
2023-05-10T03:40:46.831Z,7.96
2023-05-10T03:43:51.650Z,8.01
2023-05-10T03:46:56.608Z,8.05
2023-05-10T03:50:02.303Z,8.12
2023-05-10T03:53:07.321Z,8.15
2023-05-10T03:56:11.217Z,8.24
2023-05-10T03:59:18.390Z,8.37
2023-05-10T04:02:25.766Z,8.47
2023-05-10T04:05:32.120Z,8.54
2023-05-10T04:08:39.389Z,8.64
2023-05-10T04:11:49.591Z,8.72
2023-05-10T04:14:56.896Z,8.82
2023-05-10T04:18:00.339Z,8.92
2023-05-10T04:21:20.158Z,8.99
2023-05-10T04:24:28.190Z,9.02
2023-05-10T04:27:34.955Z,9.06
2023-05-10T04:30:41.867Z,9.10
2023-05-10T04:33:54.579Z,9.18
2023-05-10T04:37:03.504Z,9.27
2023-05-10T04:40:07.931Z,9.22
2023-05-10T04:43:12.438Z,9.21
2023-05-10T04:46:19.761Z,9.35
2023-05-10T04:49:26.186Z,9.43
2023-05-10T04:52:34.680Z,9.43
2023-05-10T04:55:41.418Z,9.60
2023-05-10T04:58:47.461Z,9.45
2023-05-10T05:01:52.343Z,9.49
2023-05-10T05:05:02.484Z,9.51
2023-05-10T05:08:27.844Z,9.56
2023-05-10T05:11:38.651Z,9.64
2023-05-10T05:14:46.370Z,9.64
2023-05-10T05:18:25.251Z,9.81
2023-05-10T05:21:48.715Z,9.95
2023-05-10T05:25:03.945Z,10.12
2023-05-10T05:28:10.097Z,9.89
2023-05-10T05:31:18.565Z,10.02
2023-05-10T05:34:23.535Z,10.10
2023-05-10T05:37:35.192Z,10.26
2023-05-10T05:40:39.665Z,10.29
2023-05-10T05:43:51.409Z,10.49
2023-05-10T05:47:02.942Z,10.47
2023-05-10T05:50:15.796Z,10.46
2023-05-10T05:53:27.619Z,10.73
2023-05-10T05:56:37.774Z,10.71
2023-05-10T05:59:47.287Z,10.73
2023-05-10T06:02:51.290Z,10.82
2023-05-10T06:05:59.854Z,10.86
2023-05-10T06:09:10.588Z,11.30
2023-05-10T06:12:23.144Z,11.07
2023-05-10T06:34:56.896Z,11.71
2023-05-10T06:38:14.820Z,11.69
2023-05-10T06:46:36.200Z,11.77
2023-05-10T06:50:25.254Z,12.35
2023-05-10T06:59:24.143Z,11.81
2023-05-10T07:03:34.813Z,12.16
2023-05-10T07:10:58.084Z,12.22
2023-05-10T07:14:22.520Z,12.45
2023-05-10T07:18:27.418Z,12.84
2023-05-10T07:21:50.884Z,13.23
2023-05-10T07:25:07.061Z,13.17
2023-05-10T07:28:19.017Z,13.15
2023-05-10T07:31:27.119Z,13.12
2023-05-10T07:34:39.557Z,13.13
2023-05-10T07:37:56.505Z,12.97
2023-05-10T07:41:13.759Z,13.57
2023-05-10T07:44:30.689Z,14.13
2023-05-10T07:51:15.913Z,14.80
2023-05-10T07:54:36.911Z,14.78
2023-05-10T07:57:49.636Z,15.22
2023-05-10T08:01:32.275Z,15.25
2023-05-10T08:04:55.919Z,14.76
2023-05-10T08:08:37.740Z,14.38
2023-05-10T08:11:44.856Z,14.50
2023-05-10T08:14:57.760Z,14.16
2023-05-10T08:21:47.649Z,15.52
2023-05-10T08:24:56.502Z,15.76
2023-05-10T08:28:21.869Z,16.32
2023-05-10T08:31:31.777Z,15.86
2023-05-10T08:34:37.206Z,15.89
2023-05-10T08:37:49.179Z,16.61
2023-05-10T08:49:13.116Z,16.24
2023-05-10T08:52:44.563Z,15.80
2023-05-10T08:57:11.218Z,16.12
2023-05-10T09:05:50.166Z,16.25
2023-05-10T09:13:14.174Z,16.86
2023-05-10T09:16:44.917Z,17.58
2023-05-10T09:19:59.103Z,17.89
2023-05-10T09:23:17.011Z,18.33
2023-05-10T09:26:24.509Z,17.99
2023-05-10T09:29:44.973Z,18.64
2023-05-10T09:32:56.484Z,18.45
2023-05-10T09:36:17.011Z,18.90
2023-05-10T09:39:39.120Z,17.84
2023-05-10T09:42:57.782Z,18.52
2023-05-10T09:46:12.836Z,18.93
2023-05-10T09:49:19.396Z,18.79
2023-05-10T09:52:57.950Z,17.98
2023-05-10T09:56:02.552Z,18.66
2023-05-10T09:59:17.201Z,18.84
2023-05-10T10:02:36.338Z,19.24
2023-05-10T10:05:56.625Z,19.46
2023-05-10T10:09:26.155Z,19.51
2023-05-10T10:16:31.829Z,20.60
2023-05-10T10:19:47.400Z,20.67
2023-05-10T10:23:18.000Z,21.27
2023-05-10T10:27:13.224Z,21.87
2023-05-10T10:30:53.968Z,22.12
2023-05-10T10:44:06.928Z,22.43
2023-05-10T10:48:27.279Z,23.92
2023-05-10T11:06:40.069Z,24.92
2023-05-10T11:14:09.428Z,24.62
2023-05-10T11:17:35.856Z,24.33
2023-05-10T11:21:03.268Z,24.22
2023-05-10T11:24:36.361Z,24.43
2023-05-10T11:28:06.663Z,25.96
2023-05-10T11:31:14.881Z,25.37
2023-05-10T11:39:00.663Z,23.48
2023-05-10T11:42:11.101Z,24.89
2023-05-10T11:45:18.367Z,25.89
2023-05-10T11:48:29.627Z,25.81
2023-05-10T11:51:47.745Z,25.65
2023-05-10T11:55:00.238Z,25.62
2023-05-10T11:58:30.295Z,25.86
2023-05-10T12:01:49.903Z,26.43
2023-05-10T12:10:11.688Z,28.08
2023-05-10T12:33:55.161Z,25.42
2023-05-10T12:43:17.680Z,25.08
2023-05-10T12:46:30.566Z,25.58
2023-05-10T12:49:48.084Z,27.15
2023-05-10T12:53:47.354Z,25.74
2023-05-10T12:57:26.300Z,24.35
2023-05-10T13:08:15.763Z,25.08
2023-05-10T13:11:25.108Z,23.66
2023-05-10T13:14:32.280Z,22.05
2023-05-10T13:17:40.442Z,22.99
2023-05-10T13:21:05.612Z,24.75
2023-05-10T13:24:10.571Z,24.76
2023-05-10T13:27:19.441Z,24.06
2023-05-10T13:30:29.979Z,24.50
2023-05-10T13:33:42.410Z,23.83
2023-05-10T13:36:50.550Z,24.39
2023-05-10T13:40:00.514Z,23.23
2023-05-10T13:43:13.190Z,24.01
2023-05-10T13:49:38.987Z,25.30
2023-05-10T13:52:50.292Z,25.09
2023-05-10T13:55:54.145Z,23.63
2023-05-10T13:59:09.226Z,23.33
2023-05-10T14:02:32.752Z,24.46
2023-05-10T14:05:48.412Z,26.06
2023-05-10T14:08:51.890Z,26.25
2023-05-10T14:11:57.257Z,25.10
2023-05-10T14:15:00.596Z,26.85
2023-05-10T14:18:04.722Z,27.22
2023-05-10T14:21:10.845Z,25.52
2023-05-10T14:24:14.110Z,26.07
2023-05-10T14:27:20.802Z,25.44
2023-05-10T14:30:24.192Z,25.37
2023-05-10T14:33:28.257Z,24.66
2023-05-10T14:36:32.084Z,25.44
2023-05-10T14:39:36.745Z,24.77
2023-05-10T14:42:40.272Z,24.76
2023-05-10T14:45:46.558Z,24.64
2023-05-10T14:48:58.156Z,24.76
2023-05-10T14:52:01.249Z,25.13
2023-05-10T14:55:04.920Z,23.68
2023-05-10T14:58:08.496Z,23.05
2023-05-10T15:01:12.438Z,22.67
2023-05-10T15:04:17.715Z,22.37
2023-05-10T15:07:22.324Z,21.63
2023-05-10T15:10:28.817Z,21.44
2023-05-10T15:13:32.576Z,21.05
2023-05-10T15:16:36.479Z,20.80
2023-05-10T15:19:45.173Z,20.27
2023-05-10T15:22:48.795Z,20.00
2023-05-10T15:25:56.933Z,19.80
2023-05-10T15:29:00.776Z,19.74
2023-05-10T15:32:04.329Z,19.67
2023-05-10T15:35:12.764Z,19.61
2023-05-10T15:38:17.462Z,19.40
2023-05-10T15:41:21.017Z,19.30
2023-05-10T15:44:30.001Z,19.33
2023-05-10T15:47:34.697Z,19.42
2023-05-10T15:50:38.251Z,18.99
2023-05-10T15:53:52.931Z,19.02
2023-05-10T15:57:04.772Z,19.03
2023-05-10T16:00:13.503Z,19.10
2023-05-10T16:03:16.991Z,18.99
2023-05-10T16:06:20.346Z,18.71
2023-05-10T16:09:23.900Z,18.68
2023-05-10T16:12:30.583Z,18.69
2023-05-10T16:15:34.371Z,18.63
2023-05-10T16:18:37.856Z,18.34
2023-05-10T16:21:41.352Z,18.29
2023-05-10T16:24:44.636Z,18.27
2023-05-10T16:27:48.272Z,18.13
2023-05-10T16:30:51.856Z,18.13
2023-05-10T16:33:54.766Z,18.11
2023-05-10T16:36:57.642Z,17.91
2023-05-10T16:40:00.636Z,17.77
2023-05-10T16:43:03.857Z,17.72
2023-05-10T16:46:13.284Z,17.67
2023-05-10T16:49:16.521Z,17.72
2023-05-10T16:52:19.759Z,17.63
2023-05-10T16:55:25.430Z,17.51
2023-05-10T16:58:29.091Z,17.42
2023-05-10T17:01:31.995Z,17.35
2023-05-10T17:04:37.247Z,17.32
2023-05-10T17:07:40.485Z,17.23
2023-05-10T17:10:43.503Z,17.14
2023-05-10T17:13:46.401Z,17.06
2023-05-10T17:16:49.876Z,16.98
2023-05-10T17:19:52.868Z,16.88
2023-05-10T17:22:55.728Z,16.77
2023-05-10T17:26:00.240Z,16.66
2023-05-10T17:29:07.520Z,16.53
2023-05-10T17:32:10.594Z,16.42
2023-05-10T17:35:14.560Z,16.33
2023-05-10T17:38:17.820Z,16.21
2023-05-10T17:41:21.943Z,16.09
2023-05-10T17:44:26.027Z,15.95
2023-05-10T17:47:29.223Z,15.83
2023-05-10T17:50:33.232Z,15.69
2023-05-10T17:53:36.260Z,15.52
2023-05-10T17:56:39.143Z,15.33
2023-05-10T17:59:42.409Z,15.18
2023-05-10T18:02:48.502Z,14.97
2023-05-10T18:05:51.599Z,14.79
2023-05-10T18:08:54.615Z,14.73
2023-05-10T18:11:58.200Z,14.65
2023-05-10T18:15:01.200Z,14.60
2023-05-10T18:18:05.633Z,14.47
2023-05-10T18:21:08.865Z,14.33
2023-05-10T18:24:11.755Z,14.27
2023-05-10T18:27:15.423Z,14.19
2023-05-10T18:30:18.706Z,14.18
2023-05-10T18:33:21.761Z,14.07
2023-05-10T18:36:24.845Z,13.96
2023-05-10T18:39:28.116Z,13.88
2023-05-10T18:42:32.621Z,13.74
2023-05-10T18:45:36.110Z,13.69
2023-05-10T18:48:39.290Z,13.61
2023-05-10T18:51:42.292Z,13.51
2023-05-10T18:54:45.676Z,13.42
2023-05-10T18:57:48.710Z,13.36
2023-05-10T19:00:53.101Z,13.36
2023-05-10T19:03:59.352Z,13.37
2023-05-10T19:07:03.665Z,13.35
2023-05-10T19:10:07.396Z,13.34
2023-05-10T19:13:11.290Z,13.40
2023-05-10T19:16:17.124Z,13.39
2023-05-10T19:19:23.576Z,13.42
2023-05-10T19:25:37.184Z,13.33
2023-05-10T19:28:40.994Z,13.33
2023-05-10T19:31:45.920Z,13.30
2023-05-10T19:34:50.740Z,13.26
2023-05-10T19:37:54.482Z,13.22
2023-05-10T19:41:01.195Z,13.12
2023-05-10T19:44:07.905Z,13.05
2023-05-10T19:47:15.292Z,13.04
2023-05-10T19:50:26.164Z,12.99
2023-05-10T19:53:32.582Z,12.95
2023-05-10T19:56:42.513Z,12.86
2023-05-10T20:00:04.973Z,12.79
2023-05-10T20:03:21.876Z,12.71
2023-05-10T20:06:38.472Z,12.63
2023-05-10T20:10:05.323Z,12.57
2023-05-10T20:13:43.393Z,12.46
2023-05-10T20:16:50.113Z,12.40
2023-05-10T20:20:02.113Z,12.33
2023-05-10T20:23:08.920Z,12.21
2023-05-10T20:26:12.901Z,12.06
2023-05-10T20:29:35.118Z,11.55
2023-05-10T20:32:40.844Z,11.57
2023-05-10T20:35:51.507Z,11.38
2023-05-10T20:38:59.236Z,11.30
2023-05-10T20:42:06.511Z,11.23
2023-05-10T20:45:13.160Z,11.16
2023-05-10T20:48:17.876Z,11.08
2023-05-10T20:51:22.480Z,10.95
2023-05-10T20:54:25.770Z,10.91
2023-05-10T20:57:29.159Z,10.86
2023-05-10T21:00:33.144Z,10.83
2023-05-10T21:03:36.725Z,10.75
2023-05-10T21:06:45.618Z,10.68
2023-05-10T21:09:48.899Z,10.63
2023-05-10T21:12:52.487Z,10.48
2023-05-10T21:15:56.086Z,10.44
2023-05-10T21:19:02.182Z,10.41
2023-05-10T21:22:05.529Z,10.35
2023-05-10T21:25:09.274Z,10.29
2023-05-10T21:28:12.610Z,10.21
2023-05-10T21:31:16.427Z,10.07
2023-05-10T21:34:19.737Z,10.00
2023-05-10T21:37:23.024Z,9.97
2023-05-10T21:40:25.955Z,9.96
2023-05-10T21:43:29.823Z,9.92
2023-05-10T21:46:33.413Z,9.87
2023-05-10T21:49:36.854Z,9.84
2023-05-10T21:52:40.039Z,9.85
2023-05-10T21:55:42.902Z,9.85
2023-05-10T21:58:46.077Z,9.80
2023-05-10T22:01:49.359Z,9.63
2023-05-10T22:04:52.632Z,9.64
2023-05-10T22:07:55.916Z,9.55
2023-05-10T22:10:59.198Z,9.53
2023-05-10T22:14:02.485Z,9.46
2023-05-10T22:17:05.839Z,9.42
2023-05-10T22:20:09.860Z,9.40
2023-05-10T22:23:13.931Z,9.33
2023-05-10T22:26:18.604Z,9.33
2023-05-10T22:29:27.882Z,9.33
2023-05-10T22:32:32.137Z,9.28
2023-05-10T22:35:38.125Z,9.28
2023-05-10T22:38:44.819Z,9.18
2023-05-10T22:41:48.568Z,9.25
2023-05-10T22:44:55.028Z,9.17
2023-05-10T22:48:01.014Z,9.23
2023-05-10T22:51:05.366Z,9.30
2023-05-10T22:54:08.972Z,9.28
2023-05-10T22:57:13.002Z,9.27
2023-05-10T23:00:17.677Z,9.24
2023-05-10T23:03:28.327Z,9.27
2023-05-10T23:06:33.336Z,9.31
2023-05-10T23:09:36.513Z,9.35
2023-05-10T23:12:39.378Z,9.44
2023-05-10T23:15:43.812Z,9.57
2023-05-10T23:18:47.005Z,9.67
2023-05-10T23:21:50.347Z,9.72
2023-05-10T23:24:53.516Z,9.73
2023-05-10T23:27:57.406Z,9.77
2023-05-10T23:31:00.791Z,9.77
2023-05-10T23:34:04.174Z,9.88
2023-05-10T23:37:06.951Z,10.00
2023-05-10T23:40:10.538Z,10.29
2023-05-10T23:43:16.269Z,10.39
2023-05-10T23:46:19.492Z,10.52
2023-05-10T23:49:22.521Z,10.70
2023-05-10T23:52:25.563Z,10.86
2023-05-10T23:56:12.369Z,10.93
2023-05-10T23:59:15.557Z,10.91
